sensor_id;sensor_type;location;lat;lon;timestamp;P1;durP1;ratioP1;P2;durP2;ratioP2
69310;SDS011;56430;48.154;16.458;2023-04-24T00:00:18;5.63;;;2.70;;
69310;SDS011;56430;48.154;16.458;2023-04-24T00:02:46;7.97;;;2.70;;
69310;SDS011;56430;48.154;16.458;2023-04-24T00:05:13;6.10;;;2.75;;
69310;SDS011;56430;48.154;16.458;2023-04-24T00:10:49;5.60;;;2.60;;
69310;SDS011;56430;48.154;16.458;2023-04-24T00:13:18;4.70;;;2.70;;
69310;SDS011;56430;48.154;16.458;2023-04-24T00:15:45;4.97;;;2.25;;
69310;SDS011;56430;48.154;16.458;2023-04-24T00:18:12;6.30;;;2.72;;
69310;SDS011;56430;48.154;16.458;2023-04-24T00:20:39;5.88;;;2.80;;
69310;SDS011;56430;48.154;16.458;2023-04-24T00:23:06;6.28;;;2.90;;
69310;SDS011;56430;48.154;16.458;2023-04-24T00:25:33;6.07;;;2.80;;
69310;SDS011;56430;48.154;16.458;2023-04-24T00:28:00;6.57;;;2.70;;
69310;SDS011;56430;48.154;16.458;2023-04-24T00:30:29;5.88;;;3.13;;
69310;SDS011;56430;48.154;16.458;2023-04-24T00:32:56;5.97;;;2.88;;
69310;SDS011;56430;48.154;16.458;2023-04-24T00:35:23;5.32;;;2.85;;
69310;SDS011;56430;48.154;16.458;2023-04-24T00:37:50;5.50;;;2.70;;
69310;SDS011;56430;48.154;16.458;2023-04-24T00:40:17;5.05;;;2.47;;
69310;SDS011;56430;48.154;16.458;2023-04-24T00:42:44;7.70;;;2.72;;
69310;SDS011;56430;48.154;16.458;2023-04-24T00:45:11;5.63;;;2.80;;
69310;SDS011;56430;48.154;16.458;2023-04-24T00:47:39;6.07;;;2.97;;
69310;SDS011;56430;48.154;16.458;2023-04-24T00:50:10;5.80;;;3.10;;
69310;SDS011;56430;48.154;16.458;2023-04-24T00:52:38;6.95;;;2.90;;
69310;SDS011;56430;48.154;16.458;2023-04-24T00:55:06;4.50;;;2.33;;
69310;SDS011;56430;48.154;16.458;2023-04-24T00:57:33;5.85;;;2.88;;
69310;SDS011;56430;48.154;16.458;2023-04-24T01:00:01;4.28;;;2.38;;
69310;SDS011;56430;48.154;16.458;2023-04-24T01:02:29;4.90;;;2.53;;
69310;SDS011;56430;48.154;16.458;2023-04-24T01:04:57;5.22;;;3.00;;
69310;SDS011;56430;48.154;16.458;2023-04-24T01:07:24;5.57;;;2.88;;
69310;SDS011;56430;48.154;16.458;2023-04-24T01:09:52;7.03;;;2.97;;
69310;SDS011;56430;48.154;16.458;2023-04-24T01:15:21;5.87;;;3.07;;
69310;SDS011;56430;48.154;16.458;2023-04-24T01:17:48;6.88;;;3.63;;
69310;SDS011;56430;48.154;16.458;2023-04-24T01:20:17;7.47;;;3.63;;
69310;SDS011;56430;48.154;16.458;2023-04-24T01:22:46;5.53;;;3.13;;
69310;SDS011;56430;48.154;16.458;2023-04-24T01:25:12;6.72;;;3.15;;
69310;SDS011;56430;48.154;16.458;2023-04-24T01:27:39;5.70;;;3.20;;
69310;SDS011;56430;48.154;16.458;2023-04-24T01:30:06;6.65;;;3.13;;
69310;SDS011;56430;48.154;16.458;2023-04-24T01:32:34;9.15;;;2.80;;
69310;SDS011;56430;48.154;16.458;2023-04-24T01:35:01;5.97;;;2.92;;
69310;SDS011;56430;48.154;16.458;2023-04-24T01:37:28;6.10;;;3.40;;
69310;SDS011;56430;48.154;16.458;2023-04-24T01:39:56;6.77;;;3.17;;
69310;SDS011;56430;48.154;16.458;2023-04-24T01:42:23;6.43;;;3.25;;
69310;SDS011;56430;48.154;16.458;2023-04-24T01:44:50;6.03;;;3.45;;
69310;SDS011;56430;48.154;16.458;2023-04-24T01:47:18;6.18;;;2.97;;
69310;SDS011;56430;48.154;16.458;2023-04-24T01:49:45;6.40;;;3.28;;
69310;SDS011;56430;48.154;16.458;2023-04-24T01:52:12;6.43;;;3.33;;
69310;SDS011;56430;48.154;16.458;2023-04-24T01:54:39;5.47;;;2.88;;
69310;SDS011;56430;48.154;16.458;2023-04-24T01:57:07;7.57;;;3.65;;
69310;SDS011;56430;48.154;16.458;2023-04-24T01:59:35;5.72;;;3.35;;
69310;SDS011;56430;48.154;16.458;2023-04-24T02:02:02;6.35;;;3.10;;
69310;SDS011;56430;48.154;16.458;2023-04-24T02:04:29;6.90;;;3.30;;
69310;SDS011;56430;48.154;16.458;2023-04-24T02:06:56;7.35;;;3.58;;
69310;SDS011;56430;48.154;16.458;2023-04-24T02:09:22;8.88;;;3.72;;
69310;SDS011;56430;48.154;16.458;2023-04-24T02:11:50;5.85;;;3.17;;
69310;SDS011;56430;48.154;16.458;2023-04-24T02:14:18;5.47;;;2.97;;
69310;SDS011;56430;48.154;16.458;2023-04-24T02:16:45;6.03;;;2.70;;
69310;SDS011;56430;48.154;16.458;2023-04-24T02:19:12;7.57;;;3.25;;
69310;SDS011;56430;48.154;16.458;2023-04-24T02:21:39;4.78;;;2.10;;
69310;SDS011;56430;48.154;16.458;2023-04-24T02:24:06;4.63;;;2.00;;
69310;SDS011;56430;48.154;16.458;2023-04-24T02:26:32;3.97;;;1.40;;
69310;SDS011;56430;48.154;16.458;2023-04-24T02:29:00;4.90;;;1.23;;
69310;SDS011;56430;48.154;16.458;2023-04-24T02:31:28;4.00;;;1.20;;
69310;SDS011;56430;48.154;16.458;2023-04-24T02:33:55;1.48;;;0.50;;
69310;SDS011;56430;48.154;16.458;2023-04-24T02:36:22;1.00;;;0.35;;
69310;SDS011;56430;48.154;16.458;2023-04-24T02:38:48;0.82;;;0.25;;
69310;SDS011;56430;48.154;16.458;2023-04-24T02:41:15;0.80;;;0.30;;
69310;SDS011;56430;48.154;16.458;2023-04-24T02:43:42;1.58;;;0.30;;
69310;SDS011;56430;48.154;16.458;2023-04-24T02:46:09;2.22;;;0.40;;
69310;SDS011;56430;48.154;16.458;2023-04-24T02:48:37;0.82;;;0.10;;
69310;SDS011;56430;48.154;16.458;2023-04-24T02:51:04;0.22;;;0.00;;
69310;SDS011;56430;48.154;16.458;2023-04-24T02:53:32;1.30;;;0.30;;
69310;SDS011;56430;48.154;16.458;2023-04-24T02:55:58;1.08;;;0.22;;
69310;SDS011;56430;48.154;16.458;2023-04-24T02:58:25;0.55;;;0.15;;
69310;SDS011;56430;48.154;16.458;2023-04-24T03:00:53;0.68;;;0.22;;
69310;SDS011;56430;48.154;16.458;2023-04-24T03:03:20;0.60;;;0.00;;
69310;SDS011;56430;48.154;16.458;2023-04-24T03:05:49;0.70;;;0.10;;
69310;SDS011;56430;48.154;16.458;2023-04-24T03:08:16;0.50;;;0.20;;
69310;SDS011;56430;48.154;16.458;2023-04-24T03:10:43;0.43;;;0.10;;
69310;SDS011;56430;48.154;16.458;2023-04-24T03:13:10;0.57;;;0.10;;
69310;SDS011;56430;48.154;16.458;2023-04-24T03:15:37;0.50;;;0.00;;
69310;SDS011;56430;48.154;16.458;2023-04-24T03:18:06;0.90;;;0.10;;
69310;SDS011;56430;48.154;16.458;2023-04-24T03:20:33;0.77;;;0.00;;
69310;SDS011;56430;48.154;16.458;2023-04-24T03:23:03;0.63;;;0.10;;
69310;SDS011;56430;48.154;16.458;2023-04-24T03:25:30;0.20;;;0.00;;
69310;SDS011;56430;48.154;16.458;2023-04-24T03:27:57;0.75;;;0.10;;
69310;SDS011;56430;48.154;16.458;2023-04-24T03:30:24;2.03;;;0.10;;
69310;SDS011;56430;48.154;16.458;2023-04-24T03:32:51;0.63;;;0.20;;
69310;SDS011;56430;48.154;16.458;2023-04-24T03:35:18;0.43;;;0.00;;
69310;SDS011;56430;48.154;16.458;2023-04-24T03:37:44;0.35;;;0.10;;
69310;SDS011;56430;48.154;16.458;2023-04-24T03:40:13;0.70;;;0.10;;
69310;SDS011;56430;48.154;16.458;2023-04-24T03:42:40;0.40;;;0.00;;
69310;SDS011;56430;48.154;16.458;2023-04-24T03:45:07;1.63;;;0.13;;
69310;SDS011;56430;48.154;16.458;2023-04-24T03:47:34;0.43;;;0.00;;
69310;SDS011;56430;48.154;16.458;2023-04-24T03:50:01;0.47;;;0.20;;
69310;SDS011;56430;48.154;16.458;2023-04-24T03:55:32;0.37;;;0.10;;
69310;SDS011;56430;48.154;16.458;2023-04-24T03:57:59;1.25;;;0.17;;
69310;SDS011;56430;48.154;16.458;2023-04-24T04:00:26;0.30;;;0.00;;
69310;SDS011;56430;48.154;16.458;2023-04-24T04:02:53;0.75;;;0.15;;
69310;SDS011;56430;48.154;16.458;2023-04-24T04:05:20;0.50;;;0.10;;
69310;SDS011;56430;48.154;16.458;2023-04-24T04:07:47;1.20;;;0.10;;
69310;SDS011;56430;48.154;16.458;2023-04-24T04:10:14;0.60;;;0.10;;
69310;SDS011;56430;48.154;16.458;2023-04-24T04:12:43;0.30;;;0.00;;
69310;SDS011;56430;48.154;16.458;2023-04-24T04:15:10;3.03;;;0.20;;
69310;SDS011;56430;48.154;16.458;2023-04-24T04:17:37;0.82;;;0.22;;
69310;SDS011;56430;48.154;16.458;2023-04-24T04:20:05;1.27;;;0.20;;
69310;SDS011;56430;48.154;16.458;2023-04-24T04:22:34;0.80;;;0.10;;
69310;SDS011;56430;48.154;16.458;2023-04-24T04:25:01;0.98;;;0.43;;
69310;SDS011;56430;48.154;16.458;2023-04-24T04:27:28;0.80;;;0.10;;
69310;SDS011;56430;48.154;16.458;2023-04-24T04:29:58;0.20;;;0.00;;
69310;SDS011;56430;48.154;16.458;2023-04-24T04:32:26;0.43;;;0.00;;
69310;SDS011;56430;48.154;16.458;2023-04-24T04:34:53;0.85;;;0.22;;
69310;SDS011;56430;48.154;16.458;2023-04-24T04:37:20;0.35;;;0.03;;
69310;SDS011;56430;48.154;16.458;2023-04-24T04:39:47;0.55;;;0.20;;
69310;SDS011;56430;48.154;16.458;2023-04-24T04:42:14;1.25;;;0.30;;
69310;SDS011;56430;48.154;16.458;2023-04-24T04:44:41;0.37;;;0.00;;
69310;SDS011;56430;48.154;16.458;2023-04-24T04:47:09;0.40;;;0.10;;
69310;SDS011;56430;48.154;16.458;2023-04-24T04:49:36;0.70;;;0.15;;
69310;SDS011;56430;48.154;16.458;2023-04-24T04:52:03;0.55;;;0.15;;
69310;SDS011;56430;48.154;16.458;2023-04-24T04:54:30;1.05;;;0.03;;
69310;SDS011;56430;48.154;16.458;2023-04-24T04:56:57;0.87;;;0.37;;
69310;SDS011;56430;48.154;16.458;2023-04-24T04:59:24;1.65;;;0.10;;
69310;SDS011;56430;48.154;16.458;2023-04-24T05:01:51;0.47;;;0.20;;
69310;SDS011;56430;48.154;16.458;2023-04-24T05:04:19;0.47;;;0.10;;
69310;SDS011;56430;48.154;16.458;2023-04-24T05:06:46;0.32;;;0.08;;
69310;SDS011;56430;48.154;16.458;2023-04-24T05:09:13;0.90;;;0.23;;
69310;SDS011;56430;48.154;16.458;2023-04-24T05:11:40;0.70;;;0.17;;
69310;SDS011;56430;48.154;16.458;2023-04-24T05:14:07;1.00;;;0.38;;
69310;SDS011;56430;48.154;16.458;2023-04-24T05:16:34;0.55;;;0.00;;
69310;SDS011;56430;48.154;16.458;2023-04-24T05:19:03;0.35;;;0.00;;
69310;SDS011;56430;48.154;16.458;2023-04-24T05:21:31;0.40;;;0.10;;
69310;SDS011;56430;48.154;16.458;2023-04-24T05:23:58;0.55;;;0.03;;
69310;SDS011;56430;48.154;16.458;2023-04-24T05:26:25;0.30;;;0.08;;
69310;SDS011;56430;48.154;16.458;2023-04-24T05:28:52;0.40;;;0.00;;
69310;SDS011;56430;48.154;16.458;2023-04-24T05:31:19;0.77;;;0.20;;
69310;SDS011;56430;48.154;16.458;2023-04-24T05:33:46;0.60;;;0.10;;
69310;SDS011;56430;48.154;16.458;2023-04-24T05:36:13;0.85;;;0.20;;
69310;SDS011;56430;48.154;16.458;2023-04-24T05:38:41;0.90;;;0.10;;
69310;SDS011;56430;48.154;16.458;2023-04-24T05:41:08;0.47;;;0.00;;
69310;SDS011;56430;48.154;16.458;2023-04-24T05:43:35;0.40;;;0.00;;
69310;SDS011;56430;48.154;16.458;2023-04-24T05:46:02;0.33;;;0.00;;
69310;SDS011;56430;48.154;16.458;2023-04-24T05:48:29;0.90;;;0.20;;
69310;SDS011;56430;48.154;16.458;2023-04-24T05:50:58;0.77;;;0.10;;
69310;SDS011;56430;48.154;16.458;2023-04-24T05:53:25;0.70;;;0.20;;
69310;SDS011;56430;48.154;16.458;2023-04-24T05:55:53;1.33;;;0.32;;
69310;SDS011;56430;48.154;16.458;2023-04-24T05:58:20;0.80;;;0.10;;
69310;SDS011;56430;48.154;16.458;2023-04-24T06:00:47;1.67;;;0.30;;
69310;SDS011;56430;48.154;16.458;2023-04-24T06:03:15;0.50;;;0.08;;
69310;SDS011;56430;48.154;16.458;2023-04-24T06:05:42;0.63;;;0.10;;
69310;SDS011;56430;48.154;16.458;2023-04-24T06:08:09;1.13;;;0.25;;
69310;SDS011;56430;48.154;16.458;2023-04-24T06:10:36;0.90;;;0.10;;
69310;SDS011;56430;48.154;16.458;2023-04-24T06:13:04;0.65;;;0.10;;
69310;SDS011;56430;48.154;16.458;2023-04-24T06:15:33;0.45;;;0.00;;
69310;SDS011;56430;48.154;16.458;2023-04-24T06:18:00;1.02;;;0.15;;
69310;SDS011;56430;48.154;16.458;2023-04-24T06:20:27;0.75;;;0.00;;
69310;SDS011;56430;48.154;16.458;2023-04-24T06:22:53;0.40;;;0.10;;
69310;SDS011;56430;48.154;16.458;2023-04-24T06:25:20;0.68;;;0.10;;
69310;SDS011;56430;48.154;16.458;2023-04-24T06:27:47;3.17;;;0.08;;
69310;SDS011;56430;48.154;16.458;2023-04-24T06:30:16;0.98;;;0.17;;
69310;SDS011;56430;48.154;16.458;2023-04-24T06:32:42;0.82;;;0.10;;
69310;SDS011;56430;48.154;16.458;2023-04-24T06:35:09;1.87;;;0.20;;
69310;SDS011;56430;48.154;16.458;2023-04-24T06:37:38;0.80;;;0.10;;
69310;SDS011;56430;48.154;16.458;2023-04-24T06:40:06;0.55;;;0.10;;
69310;SDS011;56430;48.154;16.458;2023-04-24T06:42:32;0.98;;;0.10;;
69310;SDS011;56430;48.154;16.458;2023-04-24T06:45:00;1.23;;;0.30;;
69310;SDS011;56430;48.154;16.458;2023-04-24T06:47:29;1.03;;;0.23;;
69310;SDS011;56430;48.154;16.458;2023-04-24T06:49:55;0.93;;;0.10;;
69310;SDS011;56430;48.154;16.458;2023-04-24T06:52:22;0.70;;;0.10;;
69310;SDS011;56430;48.154;16.458;2023-04-24T06:54:49;0.85;;;0.10;;
69310;SDS011;56430;48.154;16.458;2023-04-24T06:57:17;0.60;;;0.10;;
69310;SDS011;56430;48.154;16.458;2023-04-24T06:59:43;1.53;;;0.43;;
69310;SDS011;56430;48.154;16.458;2023-04-24T07:02:10;0.90;;;0.15;;
69310;SDS011;56430;48.154;16.458;2023-04-24T07:04:39;0.68;;;0.17;;
69310;SDS011;56430;48.154;16.458;2023-04-24T07:07:06;0.80;;;0.10;;
69310;SDS011;56430;48.154;16.458;2023-04-24T07:09:34;0.60;;;0.10;;
69310;SDS011;56430;48.154;16.458;2023-04-24T07:12:04;0.50;;;0.00;;
69310;SDS011;56430;48.154;16.458;2023-04-24T07:14:31;1.30;;;0.20;;
69310;SDS011;56430;48.154;16.458;2023-04-24T07:16:58;0.75;;;0.10;;
69310;SDS011;56430;48.154;16.458;2023-04-24T07:19:25;1.40;;;0.25;;
69310;SDS011;56430;48.154;16.458;2023-04-24T07:21:53;0.82;;;0.15;;
69310;SDS011;56430;48.154;16.458;2023-04-24T07:24:20;0.50;;;0.00;;
69310;SDS011;56430;48.154;16.458;2023-04-24T07:26:47;1.92;;;0.20;;
69310;SDS011;56430;48.154;16.458;2023-04-24T07:29:14;0.52;;;0.10;;
69310;SDS011;56430;48.154;16.458;2023-04-24T07:31:41;0.82;;;0.20;;
69310;SDS011;56430;48.154;16.458;2023-04-24T07:34:07;0.70;;;0.10;;
69310;SDS011;56430;48.154;16.458;2023-04-24T07:36:34;0.93;;;0.20;;
69310;SDS011;56430;48.154;16.458;2023-04-24T07:39:02;1.75;;;0.10;;
69310;SDS011;56430;48.154;16.458;2023-04-24T07:41:29;0.73;;;0.15;;
69310;SDS011;56430;48.154;16.458;2023-04-24T07:43:56;0.65;;;0.10;;
69310;SDS011;56430;48.154;16.458;2023-04-24T07:46:23;1.08;;;0.25;;
69310;SDS011;56430;48.154;16.458;2023-04-24T07:48:50;0.70;;;0.10;;
69310;SDS011;56430;48.154;16.458;2023-04-24T07:51:18;0.28;;;0.00;;
69310;SDS011;56430;48.154;16.458;2023-04-24T07:53:45;0.73;;;0.10;;
69310;SDS011;56430;48.154;16.458;2023-04-24T07:56:13;0.40;;;0.00;;
69310;SDS011;56430;48.154;16.458;2023-04-24T07:58:40;0.63;;;0.03;;
69310;SDS011;56430;48.154;16.458;2023-04-24T08:01:07;0.60;;;0.10;;
69310;SDS011;56430;48.154;16.458;2023-04-24T08:03:34;0.25;;;0.00;;
69310;SDS011;56430;48.154;16.458;2023-04-24T08:06:01;1.08;;;0.10;;
69310;SDS011;56430;48.154;16.458;2023-04-24T08:08:28;0.82;;;0.10;;
69310;SDS011;56430;48.154;16.458;2023-04-24T08:10:54;1.02;;;0.10;;
69310;SDS011;56430;48.154;16.458;2023-04-24T08:13:23;0.73;;;0.10;;
69310;SDS011;56430;48.154;16.458;2023-04-24T08:15:50;0.70;;;0.10;;
69310;SDS011;56430;48.154;16.458;2023-04-24T08:18:16;0.68;;;0.10;;
69310;SDS011;56430;48.154;16.458;2023-04-24T08:20:43;0.60;;;0.10;;
69310;SDS011;56430;48.154;16.458;2023-04-24T08:23:10;0.75;;;0.10;;
69310;SDS011;56430;48.154;16.458;2023-04-24T08:25:37;1.47;;;0.30;;
69310;SDS011;56430;48.154;16.458;2023-04-24T08:28:05;0.90;;;0.10;;
69310;SDS011;56430;48.154;16.458;2023-04-24T08:30:33;0.55;;;0.10;;
69310;SDS011;56430;48.154;16.458;2023-04-24T08:33:00;2.75;;;0.17;;
69310;SDS011;56430;48.154;16.458;2023-04-24T08:35:27;0.57;;;0.10;;
69310;SDS011;56430;48.154;16.458;2023-04-24T08:37:54;0.70;;;0.10;;
69310;SDS011;56430;48.154;16.458;2023-04-24T08:40:22;0.73;;;0.10;;
69310;SDS011;56430;48.154;16.458;2023-04-24T08:42:49;1.10;;;0.17;;
69310;SDS011;56430;48.154;16.458;2023-04-24T08:45:20;0.47;;;0.08;;
69310;SDS011;56430;48.154;16.458;2023-04-24T08:47:48;0.75;;;0.00;;
69310;SDS011;56430;48.154;16.458;2023-04-24T08:50:15;0.50;;;0.00;;
69310;SDS011;56430;48.154;16.458;2023-04-24T08:52:42;0.90;;;0.10;;
69310;SDS011;56430;48.154;16.458;2023-04-24T08:55:09;1.30;;;0.15;;
69310;SDS011;56430;48.154;16.458;2023-04-24T08:57:36;0.30;;;0.00;;
69310;SDS011;56430;48.154;16.458;2023-04-24T09:00:06;0.55;;;0.00;;
69310;SDS011;56430;48.154;16.458;2023-04-24T09:02:33;0.73;;;0.10;;
69310;SDS011;56430;48.154;16.458;2023-04-24T09:05:02;0.32;;;0.00;;
69310;SDS011;56430;48.154;16.458;2023-04-24T09:07:29;0.50;;;0.00;;
69310;SDS011;56430;48.154;16.458;2023-04-24T09:09:57;0.50;;;0.10;;
69310;SDS011;56430;48.154;16.458;2023-04-24T09:12:25;0.70;;;0.10;;
69310;SDS011;56430;48.154;16.458;2023-04-24T09:14:52;0.20;;;0.00;;
69310;SDS011;56430;48.154;16.458;2023-04-24T09:17:20;0.50;;;0.00;;
69310;SDS011;56430;48.154;16.458;2023-04-24T09:19:48;0.43;;;0.10;;
69310;SDS011;56430;48.154;16.458;2023-04-24T09:22:16;0.22;;;0.00;;
69310;SDS011;56430;48.154;16.458;2023-04-24T09:24:44;0.47;;;0.00;;
69310;SDS011;56430;48.154;16.458;2023-04-24T09:27:11;0.30;;;0.00;;
69310;SDS011;56430;48.154;16.458;2023-04-24T09:29:46;0.82;;;0.00;;
69310;SDS011;56430;48.154;16.458;2023-04-24T09:32:20;0.35;;;0.00;;
69310;SDS011;56430;48.154;16.458;2023-04-24T09:34:48;0.30;;;0.00;;
69310;SDS011;56430;48.154;16.458;2023-04-24T09:37:27;0.55;;;0.10;;
69310;SDS011;56430;48.154;16.458;2023-04-24T09:40:06;0.40;;;0.10;;
69310;SDS011;56430;48.154;16.458;2023-04-24T09:42:33;0.13;;;0.00;;
69310;SDS011;56430;48.154;16.458;2023-04-24T09:45:01;0.25;;;0.00;;
69310;SDS011;56430;48.154;16.458;2023-04-24T09:47:29;0.20;;;0.00;;
69310;SDS011;56430;48.154;16.458;2023-04-24T09:50:08;0.20;;;0.00;;
69310;SDS011;56430;48.154;16.458;2023-04-24T09:52:37;0.10;;;0.00;;
69310;SDS011;56430;48.154;16.458;2023-04-24T09:55:10;1.15;;;0.10;;
69310;SDS011;56430;48.154;16.458;2023-04-24T09:57:42;0.17;;;0.00;;
69310;SDS011;56430;48.154;16.458;2023-04-24T10:00:13;0.20;;;0.00;;
69310;SDS011;56430;48.154;16.458;2023-04-24T10:02:43;0.50;;;0.00;;
69310;SDS011;56430;48.154;16.458;2023-04-24T10:05:11;0.10;;;0.00;;
69310;SDS011;56430;48.154;16.458;2023-04-24T10:07:39;0.52;;;0.15;;
69310;SDS011;56430;48.154;16.458;2023-04-24T10:10:06;0.05;;;0.00;;
69310;SDS011;56430;48.154;16.458;2023-04-24T10:12:33;0.10;;;0.00;;
69310;SDS011;56430;48.154;16.458;2023-04-24T10:15:00;0.28;;;0.00;;
69310;SDS011;56430;48.154;16.458;2023-04-24T10:17:28;0.23;;;0.00;;
69310;SDS011;56430;48.154;16.458;2023-04-24T10:19:55;0.38;;;0.00;;
69310;SDS011;56430;48.154;16.458;2023-04-24T10:22:22;0.35;;;0.00;;
69310;SDS011;56430;48.154;16.458;2023-04-24T10:24:51;0.10;;;0.00;;
69310;SDS011;56430;48.154;16.458;2023-04-24T10:27:18;0.20;;;0.00;;
69310;SDS011;56430;48.154;16.458;2023-04-24T10:29:47;0.00;;;0.00;;
69310;SDS011;56430;48.154;16.458;2023-04-24T10:32:14;0.40;;;0.10;;
69310;SDS011;56430;48.154;16.458;2023-04-24T10:34:41;0.13;;;0.00;;
69310;SDS011;56430;48.154;16.458;2023-04-24T10:37:08;0.13;;;0.00;;
69310;SDS011;56430;48.154;16.458;2023-04-24T10:39:35;0.63;;;0.00;;
69310;SDS011;56430;48.154;16.458;2023-04-24T10:42:12;0.30;;;0.00;;
69310;SDS011;56430;48.154;16.458;2023-04-24T10:44:40;0.08;;;0.00;;
69310;SDS011;56430;48.154;16.458;2023-04-24T10:47:08;0.20;;;0.00;;
69310;SDS011;56430;48.154;16.458;2023-04-24T10:49:39;0.65;;;0.13;;
69310;SDS011;56430;48.154;16.458;2023-04-24T10:52:06;0.20;;;0.00;;
69310;SDS011;56430;48.154;16.458;2023-04-24T10:54:36;0.10;;;0.00;;
69310;SDS011;56430;48.154;16.458;2023-04-24T10:59:51;0.57;;;0.00;;
69310;SDS011;56430;48.154;16.458;2023-04-24T11:02:20;0.20;;;0.00;;
69310;SDS011;56430;48.154;16.458;2023-04-24T11:05:02;0.28;;;0.10;;
69310;SDS011;56430;48.154;16.458;2023-04-24T11:07:29;1.00;;;0.00;;
69310;SDS011;56430;48.154;16.458;2023-04-24T11:09:57;0.32;;;0.10;;
69310;SDS011;56430;48.154;16.458;2023-04-24T11:12:26;0.20;;;0.00;;
69310;SDS011;56430;48.154;16.458;2023-04-24T11:15:04;0.10;;;0.00;;
69310;SDS011;56430;48.154;16.458;2023-04-24T11:17:37;0.20;;;0.00;;
69310;SDS011;56430;48.154;16.458;2023-04-24T11:20:05;0.77;;;0.10;;
69310;SDS011;56430;48.154;16.458;2023-04-24T11:22:33;0.32;;;0.00;;
69310;SDS011;56430;48.154;16.458;2023-04-24T11:25:01;0.00;;;0.00;;
69310;SDS011;56430;48.154;16.458;2023-04-24T11:27:29;0.52;;;0.00;;
69310;SDS011;56430;48.154;16.458;2023-04-24T11:29:59;0.10;;;0.00;;
69310;SDS011;56430;48.154;16.458;2023-04-24T11:32:28;0.30;;;0.00;;
69310;SDS011;56430;48.154;16.458;2023-04-24T11:34:56;0.30;;;0.00;;
69310;SDS011;56430;48.154;16.458;2023-04-24T11:37:23;0.55;;;0.20;;
69310;SDS011;56430;48.154;16.458;2023-04-24T11:39:51;0.57;;;0.10;;
69310;SDS011;56430;48.154;16.458;2023-04-24T11:42:19;0.52;;;0.00;;
69310;SDS011;56430;48.154;16.458;2023-04-24T11:44:46;0.23;;;0.00;;
69310;SDS011;56430;48.154;16.458;2023-04-24T11:47:14;0.20;;;0.00;;
69310;SDS011;56430;48.154;16.458;2023-04-24T11:49:42;0.22;;;0.00;;
69310;SDS011;56430;48.154;16.458;2023-04-24T11:52:09;0.40;;;0.05;;
69310;SDS011;56430;48.154;16.458;2023-04-24T11:54:37;0.20;;;0.00;;
69310;SDS011;56430;48.154;16.458;2023-04-24T11:57:04;0.37;;;0.00;;
69310;SDS011;56430;48.154;16.458;2023-04-24T11:59:35;0.60;;;0.00;;
69310;SDS011;56430;48.154;16.458;2023-04-24T12:02:01;0.28;;;0.00;;
69310;SDS011;56430;48.154;16.458;2023-04-24T12:04:37;0.40;;;0.00;;
69310;SDS011;56430;48.154;16.458;2023-04-24T12:07:06;0.38;;;0.10;;
69310;SDS011;56430;48.154;16.458;2023-04-24T12:09:40;0.33;;;0.00;;
69310;SDS011;56430;48.154;16.458;2023-04-24T12:12:07;0.70;;;0.10;;
69310;SDS011;56430;48.154;16.458;2023-04-24T12:14:41;1.05;;;0.00;;
69310;SDS011;56430;48.154;16.458;2023-04-24T12:17:11;0.30;;;0.00;;
69310;SDS011;56430;48.154;16.458;2023-04-24T12:19:38;1.08;;;0.00;;
69310;SDS011;56430;48.154;16.458;2023-04-24T12:22:06;0.47;;;0.03;;
69310;SDS011;56430;48.154;16.458;2023-04-24T12:24:33;0.50;;;0.10;;
69310;SDS011;56430;48.154;16.458;2023-04-24T12:26:59;0.40;;;0.10;;
69310;SDS011;56430;48.154;16.458;2023-04-24T12:29:27;0.60;;;0.10;;
69310;SDS011;56430;48.154;16.458;2023-04-24T12:31:54;0.88;;;0.10;;
69310;SDS011;56430;48.154;16.458;2023-04-24T12:34:22;0.70;;;0.10;;
69310;SDS011;56430;48.154;16.458;2023-04-24T12:36:50;0.60;;;0.10;;
69310;SDS011;56430;48.154;16.458;2023-04-24T12:39:19;0.70;;;0.10;;
69310;SDS011;56430;48.154;16.458;2023-04-24T12:41:54;0.50;;;0.00;;
69310;SDS011;56430;48.154;16.458;2023-04-24T12:44:28;0.32;;;0.03;;
69310;SDS011;56430;48.154;16.458;2023-04-24T12:46:55;0.37;;;0.00;;
69310;SDS011;56430;48.154;16.458;2023-04-24T12:49:22;0.55;;;0.00;;
69310;SDS011;56430;48.154;16.458;2023-04-24T12:51:49;0.40;;;0.00;;
69310;SDS011;56430;48.154;16.458;2023-04-24T12:54:16;0.63;;;0.08;;
69310;SDS011;56430;48.154;16.458;2023-04-24T12:56:44;0.55;;;0.10;;
69310;SDS011;56430;48.154;16.458;2023-04-24T12:59:11;0.27;;;0.00;;
69310;SDS011;56430;48.154;16.458;2023-04-24T13:01:38;0.50;;;0.10;;
69310;SDS011;56430;48.154;16.458;2023-04-24T13:04:07;0.77;;;0.00;;
69310;SDS011;56430;48.154;16.458;2023-04-24T13:06:34;0.55;;;0.05;;
69310;SDS011;56430;48.154;16.458;2023-04-24T13:09:01;0.75;;;0.00;;
69310;SDS011;56430;48.154;16.458;2023-04-24T13:11:28;0.87;;;0.10;;
69310;SDS011;56430;48.154;16.458;2023-04-24T13:13:56;0.57;;;0.10;;
69310;SDS011;56430;48.154;16.458;2023-04-24T13:16:23;0.52;;;0.00;;
69310;SDS011;56430;48.154;16.458;2023-04-24T13:18:50;0.60;;;0.10;;
69310;SDS011;56430;48.154;16.458;2023-04-24T13:21:17;0.43;;;0.00;;
69310;SDS011;56430;48.154;16.458;2023-04-24T13:23:44;0.60;;;0.10;;
69310;SDS011;56430;48.154;16.458;2023-04-24T13:26:11;0.47;;;0.10;;
69310;SDS011;56430;48.154;16.458;2023-04-24T13:28:37;0.63;;;0.10;;
69310;SDS011;56430;48.154;16.458;2023-04-24T13:31:06;0.57;;;0.05;;
69310;SDS011;56430;48.154;16.458;2023-04-24T13:33:33;1.60;;;0.30;;
69310;SDS011;56430;48.154;16.458;2023-04-24T13:36:00;1.20;;;0.10;;
69310;SDS011;56430;48.154;16.458;2023-04-24T13:38:27;0.82;;;0.13;;
69310;SDS011;56430;48.154;16.458;2023-04-24T13:40:54;0.47;;;0.00;;
69310;SDS011;56430;48.154;16.458;2023-04-24T13:43:21;2.58;;;0.00;;
69310;SDS011;56430;48.154;16.458;2023-04-24T13:45:48;0.50;;;0.10;;
69310;SDS011;56430;48.154;16.458;2023-04-24T13:48:16;0.80;;;0.10;;
69310;SDS011;56430;48.154;16.458;2023-04-24T13:50:43;0.38;;;0.00;;
69310;SDS011;56430;48.154;16.458;2023-04-24T13:53:13;0.98;;;0.10;;
69310;SDS011;56430;48.154;16.458;2023-04-24T13:55:40;1.40;;;0.10;;
69310;SDS011;56430;48.154;16.458;2023-04-24T13:58:07;0.70;;;0.10;;
69310;SDS011;56430;48.154;16.458;2023-04-24T14:00:34;0.77;;;0.00;;
69310;SDS011;56430;48.154;16.458;2023-04-24T14:03:01;0.45;;;0.00;;
69310;SDS011;56430;48.154;16.458;2023-04-24T14:05:29;0.60;;;0.10;;
69310;SDS011;56430;48.154;16.458;2023-04-24T14:07:56;0.30;;;0.00;;
69310;SDS011;56430;48.154;16.458;2023-04-24T14:10:23;0.90;;;0.30;;
69310;SDS011;56430;48.154;16.458;2023-04-24T14:12:53;0.77;;;0.40;;
69310;SDS011;56430;48.154;16.458;2023-04-24T14:15:20;0.57;;;0.10;;
69310;SDS011;56430;48.154;16.458;2023-04-24T14:17:48;1.13;;;0.20;;
69310;SDS011;56430;48.154;16.458;2023-04-24T14:20:15;0.52;;;0.10;;
69310;SDS011;56430;48.154;16.458;2023-04-24T14:22:43;0.75;;;0.17;;
69310;SDS011;56430;48.154;16.458;2023-04-24T14:25:10;1.20;;;0.40;;
69310;SDS011;56430;48.154;16.458;2023-04-24T14:27:37;1.35;;;0.10;;
69310;SDS011;56430;48.154;16.458;2023-04-24T14:30:04;0.90;;;0.20;;
69310;SDS011;56430;48.154;16.458;2023-04-24T14:32:31;0.68;;;0.10;;
69310;SDS011;56430;48.154;16.458;2023-04-24T14:34:58;0.60;;;0.10;;
69310;SDS011;56430;48.154;16.458;2023-04-24T14:37:25;0.67;;;0.10;;
69310;SDS011;56430;48.154;16.458;2023-04-24T14:39:53;0.47;;;0.00;;
69310;SDS011;56430;48.154;16.458;2023-04-24T14:42:20;0.93;;;0.10;;
69310;SDS011;56430;48.154;16.458;2023-04-24T14:44:47;0.73;;;0.20;;
69310;SDS011;56430;48.154;16.458;2023-04-24T14:47:14;1.42;;;0.55;;